KCAD/CAD METAR and TAF weather

Enter ICAO airport designator
Station Type Date Time Source
KCAD METAR 2021/10/24 21:35 UTC NOAA

KCAD 242135Z AUTO 03007KT 10SM SCT045 08/02 A2998 RMK AO2 T00800018


Station Type Date Time Source
KCAD Decoded METAR 2021/10/24 21:35 UTC NOAA

Cadillac / Wexford County, MI, United States (KCAD) 44-17N 085-25W
Oct 24, 2021 - 05:35 PM EDT / 2021.10.24 2135 UTC
Wind: from the NNE (030 degrees) at 8 MPH (7 KT):0
Visibility: 10 mile(s):0
Sky conditions: partly cloudy
Temperature: 46.4 F (8.0 C)
Dew Point: 35.2 F (1.8 C)
Relative Humidity: 64%
Pressure (altimeter): 29.98 in. Hg (1015 hPa)
ob: KCAD 242135Z AUTO 03007KT 10SM SCT045 08/02 A2998 RMK AO2 T00800018
cycle: 21

Station Type Date Time Source
KCAD TAF UTC NOAA

Error!

Example: see airport list